sensor_id;sensor_type;location;lat;lon;timestamp;P1;durP1;ratioP1;P2;durP2;ratioP2
5147;SDS011;2592;48.140;7.614;2023-07-09T00:00:52;8.33;;;5.30;;
5147;SDS011;2592;48.140;7.614;2023-07-09T00:03:19;16.20;;;5.70;;
5147;SDS011;2592;48.140;7.614;2023-07-09T00:05:46;12.73;;;4.50;;
5147;SDS011;2592;48.140;7.614;2023-07-09T00:08:14;12.30;;;6.10;;
5147;SDS011;2592;48.140;7.614;2023-07-09T00:10:47;9.10;;;5.10;;
5147;SDS011;2592;48.140;7.614;2023-07-09T00:13:14;8.90;;;4.77;;
5147;SDS011;2592;48.140;7.614;2023-07-09T00:15:40;12.80;;;6.10;;
5147;SDS011;2592;48.140;7.614;2023-07-09T00:18:08;12.03;;;6.03;;
5147;SDS011;2592;48.140;7.614;2023-07-09T00:20:35;8.57;;;5.53;;
5147;SDS011;2592;48.140;7.614;2023-07-09T00:23:02;10.63;;;5.70;;
5147;SDS011;2592;48.140;7.614;2023-07-09T00:25:29;13.97;;;5.90;;
5147;SDS011;2592;48.140;7.614;2023-07-09T00:27:56;9.20;;;5.73;;
5147;SDS011;2592;48.140;7.614;2023-07-09T00:30:23;12.07;;;5.73;;
5147;SDS011;2592;48.140;7.614;2023-07-09T00:32:49;22.03;;;5.10;;
5147;SDS011;2592;48.140;7.614;2023-07-09T00:35:18;10.13;;;6.67;;
5147;SDS011;2592;48.140;7.614;2023-07-09T00:37:45;10.40;;;5.63;;
5147;SDS011;2592;48.140;7.614;2023-07-09T00:40:16;12.97;;;5.93;;
5147;SDS011;2592;48.140;7.614;2023-07-09T00:42:44;17.23;;;6.40;;
5147;SDS011;2592;48.140;7.614;2023-07-09T00:45:15;11.73;;;6.00;;
5147;SDS011;2592;48.140;7.614;2023-07-09T00:47:43;9.80;;;5.27;;
5147;SDS011;2592;48.140;7.614;2023-07-09T00:50:13;8.20;;;5.37;;
5147;SDS011;2592;48.140;7.614;2023-07-09T00:52:45;11.63;;;6.30;;
5147;SDS011;2592;48.140;7.614;2023-07-09T00:55:14;15.77;;;5.40;;
5147;SDS011;2592;48.140;7.614;2023-07-09T00:57:41;6.03;;;4.97;;
5147;SDS011;2592;48.140;7.614;2023-07-09T01:00:10;9.93;;;5.10;;
5147;SDS011;2592;48.140;7.614;2023-07-09T01:02:40;9.00;;;4.70;;
5147;SDS011;2592;48.140;7.614;2023-07-09T01:05:08;10.67;;;5.33;;
5147;SDS011;2592;48.140;7.614;2023-07-09T01:07:36;9.07;;;5.07;;
5147;SDS011;2592;48.140;7.614;2023-07-09T01:10:05;8.17;;;5.53;;
5147;SDS011;2592;48.140;7.614;2023-07-09T01:12:31;10.07;;;5.63;;
5147;SDS011;2592;48.140;7.614;2023-07-09T01:14:58;9.70;;;6.13;;
5147;SDS011;2592;48.140;7.614;2023-07-09T01:17:25;8.53;;;5.70;;
5147;SDS011;2592;48.140;7.614;2023-07-09T01:19:53;8.90;;;5.57;;
5147;SDS011;2592;48.140;7.614;2023-07-09T01:22:21;10.47;;;6.07;;
5147;SDS011;2592;48.140;7.614;2023-07-09T01:24:50;11.70;;;5.97;;
5147;SDS011;2592;48.140;7.614;2023-07-09T01:27:18;11.10;;;5.90;;
5147;SDS011;2592;48.140;7.614;2023-07-09T01:29:45;8.37;;;5.77;;
5147;SDS011;2592;48.140;7.614;2023-07-09T01:32:14;10.10;;;5.40;;
5147;SDS011;2592;48.140;7.614;2023-07-09T01:34:40;8.47;;;4.73;;
5147;SDS011;2592;48.140;7.614;2023-07-09T01:37:07;10.60;;;5.23;;
5147;SDS011;2592;48.140;7.614;2023-07-09T01:39:35;12.80;;;6.07;;
5147;SDS011;2592;48.140;7.614;2023-07-09T01:42:02;12.07;;;5.20;;
5147;SDS011;2592;48.140;7.614;2023-07-09T01:44:33;10.33;;;5.77;;
5147;SDS011;2592;48.140;7.614;2023-07-09T01:47:00;10.97;;;5.23;;
5147;SDS011;2592;48.140;7.614;2023-07-09T01:49:29;8.20;;;4.77;;
5147;SDS011;2592;48.140;7.614;2023-07-09T01:51:57;9.73;;;5.37;;
5147;SDS011;2592;48.140;7.614;2023-07-09T01:54:24;6.27;;;5.07;;
5147;SDS011;2592;48.140;7.614;2023-07-09T01:56:51;9.77;;;5.73;;
5147;SDS011;2592;48.140;7.614;2023-07-09T01:59:20;9.90;;;5.93;;
5147;SDS011;2592;48.140;7.614;2023-07-09T02:01:47;12.10;;;5.07;;
5147;SDS011;2592;48.140;7.614;2023-07-09T02:04:15;9.40;;;5.50;;
5147;SDS011;2592;48.140;7.614;2023-07-09T02:06:41;7.77;;;5.03;;
5147;SDS011;2592;48.140;7.614;2023-07-09T02:09:07;12.63;;;5.90;;
5147;SDS011;2592;48.140;7.614;2023-07-09T02:11:34;9.90;;;6.00;;
5147;SDS011;2592;48.140;7.614;2023-07-09T02:14:02;9.47;;;5.47;;
5147;SDS011;2592;48.140;7.614;2023-07-09T02:16:28;8.90;;;5.37;;
5147;SDS011;2592;48.140;7.614;2023-07-09T02:18:55;11.10;;;5.43;;
5147;SDS011;2592;48.140;7.614;2023-07-09T02:21:21;7.03;;;5.77;;
5147;SDS011;2592;48.140;7.614;2023-07-09T02:23:47;7.73;;;5.63;;
5147;SDS011;2592;48.140;7.614;2023-07-09T02:26:15;6.07;;;5.47;;
5147;SDS011;2592;48.140;7.614;2023-07-09T02:28:41;7.50;;;5.10;;
5147;SDS011;2592;48.140;7.614;2023-07-09T02:31:09;9.43;;;5.50;;
5147;SDS011;2592;48.140;7.614;2023-07-09T02:33:35;9.33;;;5.70;;
5147;SDS011;2592;48.140;7.614;2023-07-09T02:36:02;14.17;;;5.33;;
5147;SDS011;2592;48.140;7.614;2023-07-09T02:38:28;6.10;;;4.83;;
5147;SDS011;2592;48.140;7.614;2023-07-09T02:40:55;12.53;;;5.40;;
5147;SDS011;2592;48.140;7.614;2023-07-09T02:43:21;9.87;;;5.30;;
5147;SDS011;2592;48.140;7.614;2023-07-09T02:45:48;8.70;;;5.90;;
5147;SDS011;2592;48.140;7.614;2023-07-09T02:48:16;11.60;;;5.63;;
5147;SDS011;2592;48.140;7.614;2023-07-09T02:50:42;10.70;;;5.03;;
5147;SDS011;2592;48.140;7.614;2023-07-09T02:53:08;8.07;;;4.60;;
5147;SDS011;2592;48.140;7.614;2023-07-09T02:55:35;10.70;;;6.23;;
5147;SDS011;2592;48.140;7.614;2023-07-09T02:58:01;12.43;;;5.90;;
5147;SDS011;2592;48.140;7.614;2023-07-09T03:00:28;12.40;;;4.83;;
5147;SDS011;2592;48.140;7.614;2023-07-09T03:02:56;13.17;;;6.00;;
5147;SDS011;2592;48.140;7.614;2023-07-09T03:05:23;13.83;;;5.13;;
5147;SDS011;2592;48.140;7.614;2023-07-09T03:07:50;9.57;;;6.23;;
5147;SDS011;2592;48.140;7.614;2023-07-09T03:10:16;11.23;;;5.47;;
5147;SDS011;2592;48.140;7.614;2023-07-09T03:12:42;5.77;;;4.73;;
5147;SDS011;2592;48.140;7.614;2023-07-09T03:15:09;10.40;;;5.07;;
5147;SDS011;2592;48.140;7.614;2023-07-09T03:17:35;6.63;;;5.20;;
5147;SDS011;2592;48.140;7.614;2023-07-09T03:20:02;7.40;;;4.90;;
5147;SDS011;2592;48.140;7.614;2023-07-09T03:22:30;10.90;;;5.53;;
5147;SDS011;2592;48.140;7.614;2023-07-09T03:24:57;9.27;;;5.63;;
5147;SDS011;2592;48.140;7.614;2023-07-09T03:27:23;10.43;;;5.00;;
5147;SDS011;2592;48.140;7.614;2023-07-09T03:29:50;13.23;;;5.60;;
5147;SDS011;2592;48.140;7.614;2023-07-09T03:32:16;12.40;;;5.70;;
5147;SDS011;2592;48.140;7.614;2023-07-09T03:34:42;8.93;;;4.60;;
5147;SDS011;2592;48.140;7.614;2023-07-09T03:37:09;11.60;;;6.60;;
5147;SDS011;2592;48.140;7.614;2023-07-09T03:39:37;13.83;;;6.20;;
5147;SDS011;2592;48.140;7.614;2023-07-09T03:42:03;6.63;;;4.37;;
5147;SDS011;2592;48.140;7.614;2023-07-09T03:44:30;8.60;;;4.83;;
5147;SDS011;2592;48.140;7.614;2023-07-09T03:46:56;7.83;;;5.13;;
5147;SDS011;2592;48.140;7.614;2023-07-09T03:49:22;7.50;;;5.30;;
5147;SDS011;2592;48.140;7.614;2023-07-09T03:51:49;12.27;;;5.20;;
5147;SDS011;2592;48.140;7.614;2023-07-09T03:54:15;11.60;;;5.40;;
5147;SDS011;2592;48.140;7.614;2023-07-09T03:56:43;9.60;;;5.87;;
5147;SDS011;2592;48.140;7.614;2023-07-09T03:59:10;7.80;;;4.70;;
5147;SDS011;2592;48.140;7.614;2023-07-09T04:01:36;13.57;;;5.87;;
5147;SDS011;2592;48.140;7.614;2023-07-09T04:04:03;7.73;;;5.20;;
5147;SDS011;2592;48.140;7.614;2023-07-09T04:06:29;11.17;;;5.20;;
5147;SDS011;2592;48.140;7.614;2023-07-09T04:08:56;6.93;;;5.53;;
5147;SDS011;2592;48.140;7.614;2023-07-09T04:11:22;10.80;;;5.57;;
5147;SDS011;2592;48.140;7.614;2023-07-09T04:13:50;9.20;;;5.30;;
5147;SDS011;2592;48.140;7.614;2023-07-09T04:16:16;7.00;;;5.00;;
5147;SDS011;2592;48.140;7.614;2023-07-09T04:18:43;11.90;;;6.20;;
5147;SDS011;2592;48.140;7.614;2023-07-09T04:21:09;8.07;;;5.33;;
5147;SDS011;2592;48.140;7.614;2023-07-09T04:23:35;13.80;;;6.40;;
5147;SDS011;2592;48.140;7.614;2023-07-09T04:26:02;12.60;;;5.90;;
5147;SDS011;2592;48.140;7.614;2023-07-09T04:28:29;17.40;;;5.97;;
5147;SDS011;2592;48.140;7.614;2023-07-09T04:30:57;10.30;;;6.83;;
5147;SDS011;2592;48.140;7.614;2023-07-09T04:33:24;10.60;;;5.37;;
5147;SDS011;2592;48.140;7.614;2023-07-09T04:35:50;9.00;;;5.87;;
5147;SDS011;2592;48.140;7.614;2023-07-09T04:38:17;13.20;;;5.80;;
5147;SDS011;2592;48.140;7.614;2023-07-09T04:40:44;9.43;;;5.90;;
5147;SDS011;2592;48.140;7.614;2023-07-09T04:43:10;7.40;;;5.03;;
5147;SDS011;2592;48.140;7.614;2023-07-09T04:45:37;11.50;;;6.20;;
5147;SDS011;2592;48.140;7.614;2023-07-09T04:48:05;7.90;;;5.67;;
5147;SDS011;2592;48.140;7.614;2023-07-09T04:50:31;6.97;;;5.27;;
5147;SDS011;2592;48.140;7.614;2023-07-09T04:52:58;10.07;;;5.63;;
5147;SDS011;2592;48.140;7.614;2023-07-09T04:55:24;9.77;;;6.70;;
5147;SDS011;2592;48.140;7.614;2023-07-09T04:57:51;10.90;;;5.30;;
5147;SDS011;2592;48.140;7.614;2023-07-09T05:00:18;9.90;;;5.43;;
5147;SDS011;2592;48.140;7.614;2023-07-09T05:02:44;10.80;;;5.67;;
5147;SDS011;2592;48.140;7.614;2023-07-09T05:05:12;8.33;;;5.60;;
5147;SDS011;2592;48.140;7.614;2023-07-09T05:07:39;8.30;;;5.77;;
5147;SDS011;2592;48.140;7.614;2023-07-09T05:10:06;7.67;;;5.23;;
5147;SDS011;2592;48.140;7.614;2023-07-09T05:12:33;8.80;;;5.27;;
5147;SDS011;2592;48.140;7.614;2023-07-09T05:14:59;7.73;;;5.30;;
5147;SDS011;2592;48.140;7.614;2023-07-09T05:17:25;9.23;;;5.13;;
5147;SDS011;2592;48.140;7.614;2023-07-09T05:19:52;8.27;;;5.30;;
5147;SDS011;2592;48.140;7.614;2023-07-09T05:22:20;9.20;;;5.30;;
5147;SDS011;2592;48.140;7.614;2023-07-09T05:24:46;14.40;;;5.00;;
5147;SDS011;2592;48.140;7.614;2023-07-09T05:27:13;8.40;;;5.50;;
5147;SDS011;2592;48.140;7.614;2023-07-09T05:29:39;42.10;;;5.80;;
5147;SDS011;2592;48.140;7.614;2023-07-09T05:32:06;7.77;;;5.20;;
5147;SDS011;2592;48.140;7.614;2023-07-09T05:34:32;9.77;;;5.60;;
5147;SDS011;2592;48.140;7.614;2023-07-09T05:36:58;7.30;;;5.10;;
5147;SDS011;2592;48.140;7.614;2023-07-09T05:39:26;12.20;;;5.27;;
5147;SDS011;2592;48.140;7.614;2023-07-09T05:41:53;8.77;;;5.20;;
5147;SDS011;2592;48.140;7.614;2023-07-09T05:44:19;8.60;;;4.90;;
5147;SDS011;2592;48.140;7.614;2023-07-09T05:46:46;8.70;;;5.57;;
5147;SDS011;2592;48.140;7.614;2023-07-09T05:49:12;8.40;;;4.47;;
5147;SDS011;2592;48.140;7.614;2023-07-09T05:51:38;10.57;;;5.10;;
5147;SDS011;2592;48.140;7.614;2023-07-09T05:54:05;7.83;;;4.93;;
5147;SDS011;2592;48.140;7.614;2023-07-09T05:56:33;8.97;;;4.60;;
5147;SDS011;2592;48.140;7.614;2023-07-09T05:58:59;7.10;;;5.10;;
5147;SDS011;2592;48.140;7.614;2023-07-09T06:01:26;8.27;;;5.10;;
5147;SDS011;2592;48.140;7.614;2023-07-09T06:03:52;13.77;;;5.20;;
5147;SDS011;2592;48.140;7.614;2023-07-09T06:06:19;9.30;;;4.80;;
5147;SDS011;2592;48.140;7.614;2023-07-09T06:08:45;7.00;;;5.50;;
5147;SDS011;2592;48.140;7.614;2023-07-09T06:11:12;9.43;;;4.70;;
5147;SDS011;2592;48.140;7.614;2023-07-09T06:13:40;7.00;;;5.20;;
5147;SDS011;2592;48.140;7.614;2023-07-09T06:16:06;7.40;;;5.03;;
5147;SDS011;2592;48.140;7.614;2023-07-09T06:18:33;5.70;;;4.60;;
5147;SDS011;2592;48.140;7.614;2023-07-09T06:21:00;6.60;;;4.70;;
5147;SDS011;2592;48.140;7.614;2023-07-09T06:23:27;9.00;;;6.00;;
5147;SDS011;2592;48.140;7.614;2023-07-09T06:25:54;9.17;;;5.30;;
5147;SDS011;2592;48.140;7.614;2023-07-09T06:28:21;9.00;;;5.50;;
5147;SDS011;2592;48.140;7.614;2023-07-09T06:30:49;9.67;;;5.53;;
5147;SDS011;2592;48.140;7.614;2023-07-09T06:33:16;11.37;;;6.00;;
5147;SDS011;2592;48.140;7.614;2023-07-09T06:35:46;10.20;;;5.50;;
5147;SDS011;2592;48.140;7.614;2023-07-09T06:38:12;9.43;;;4.83;;
5147;SDS011;2592;48.140;7.614;2023-07-09T06:40:39;9.07;;;4.13;;
5147;SDS011;2592;48.140;7.614;2023-07-09T06:43:05;12.60;;;5.83;;
5147;SDS011;2592;48.140;7.614;2023-07-09T06:45:31;9.23;;;5.17;;
5147;SDS011;2592;48.140;7.614;2023-07-09T06:48:00;8.30;;;4.80;;
5147;SDS011;2592;48.140;7.614;2023-07-09T06:50:26;7.10;;;4.87;;
5147;SDS011;2592;48.140;7.614;2023-07-09T06:52:53;6.10;;;4.80;;
5147;SDS011;2592;48.140;7.614;2023-07-09T06:55:19;10.23;;;5.30;;
5147;SDS011;2592;48.140;7.614;2023-07-09T06:57:46;6.30;;;4.30;;
5147;SDS011;2592;48.140;7.614;2023-07-09T07:00:12;8.53;;;5.10;;
5147;SDS011;2592;48.140;7.614;2023-07-09T07:02:39;5.80;;;4.23;;
5147;SDS011;2592;48.140;7.614;2023-07-09T07:05:07;6.30;;;4.57;;
5147;SDS011;2592;48.140;7.614;2023-07-09T07:07:33;9.33;;;4.77;;
5147;SDS011;2592;48.140;7.614;2023-07-09T07:10:00;10.07;;;5.10;;
5147;SDS011;2592;48.140;7.614;2023-07-09T07:12:27;7.97;;;5.30;;
5147;SDS011;2592;48.140;7.614;2023-07-09T07:14:54;10.00;;;5.80;;
5147;SDS011;2592;48.140;7.614;2023-07-09T07:17:21;12.57;;;4.70;;
5147;SDS011;2592;48.140;7.614;2023-07-09T07:19:47;10.27;;;5.43;;
5147;SDS011;2592;48.140;7.614;2023-07-09T07:22:15;9.73;;;6.00;;
5147;SDS011;2592;48.140;7.614;2023-07-09T07:24:42;13.70;;;5.50;;
5147;SDS011;2592;48.140;7.614;2023-07-09T07:27:08;11.07;;;4.97;;
5147;SDS011;2592;48.140;7.614;2023-07-09T07:29:34;7.97;;;4.97;;
5147;SDS011;2592;48.140;7.614;2023-07-09T07:32:01;8.23;;;5.40;;
5147;SDS011;2592;48.140;7.614;2023-07-09T07:34:27;9.97;;;5.60;;
5147;SDS011;2592;48.140;7.614;2023-07-09T07:36:54;14.67;;;5.50;;
5147;SDS011;2592;48.140;7.614;2023-07-09T07:39:22;7.07;;;4.87;;
5147;SDS011;2592;48.140;7.614;2023-07-09T07:41:48;7.40;;;5.17;;
5147;SDS011;2592;48.140;7.614;2023-07-09T07:44:16;10.30;;;5.30;;
5147;SDS011;2592;48.140;7.614;2023-07-09T07:46:42;8.53;;;4.20;;
5147;SDS011;2592;48.140;7.614;2023-07-09T07:49:08;10.20;;;3.90;;
5147;SDS011;2592;48.140;7.614;2023-07-09T07:51:35;7.83;;;4.40;;
5147;SDS011;2592;48.140;7.614;2023-07-09T07:54:02;5.70;;;4.00;;
5147;SDS011;2592;48.140;7.614;2023-07-09T07:56:30;8.30;;;4.73;;
5147;SDS011;2592;48.140;7.614;2023-07-09T07:58:56;8.37;;;4.70;;
5147;SDS011;2592;48.140;7.614;2023-07-09T08:01:23;7.93;;;5.10;;
5147;SDS011;2592;48.140;7.614;2023-07-09T08:03:49;10.03;;;5.50;;
5147;SDS011;2592;48.140;7.614;2023-07-09T08:06:16;7.50;;;4.40;;
5147;SDS011;2592;48.140;7.614;2023-07-09T08:08:42;8.00;;;4.27;;
5147;SDS011;2592;48.140;7.614;2023-07-09T08:11:09;6.93;;;5.27;;
5147;SDS011;2592;48.140;7.614;2023-07-09T08:13:37;10.03;;;4.67;;
5147;SDS011;2592;48.140;7.614;2023-07-09T08:16:04;5.20;;;4.03;;
5147;SDS011;2592;48.140;7.614;2023-07-09T08:18:31;11.27;;;4.60;;
5147;SDS011;2592;48.140;7.614;2023-07-09T08:20:57;8.10;;;5.00;;
5147;SDS011;2592;48.140;7.614;2023-07-09T08:23:24;7.87;;;4.90;;
5147;SDS011;2592;48.140;7.614;2023-07-09T08:25:54;10.10;;;4.97;;
5147;SDS011;2592;48.140;7.614;2023-07-09T08:28:20;8.07;;;4.40;;
5147;SDS011;2592;48.140;7.614;2023-07-09T08:30:48;9.90;;;5.27;;
5147;SDS011;2592;48.140;7.614;2023-07-09T08:33:14;9.80;;;5.23;;
5147;SDS011;2592;48.140;7.614;2023-07-09T08:35:41;5.30;;;4.13;;
5147;SDS011;2592;48.140;7.614;2023-07-09T08:38:08;7.83;;;4.70;;
5147;SDS011;2592;48.140;7.614;2023-07-09T08:40:37;10.27;;;5.30;;
5147;SDS011;2592;48.140;7.614;2023-07-09T08:43:06;7.43;;;4.70;;
5147;SDS011;2592;48.140;7.614;2023-07-09T08:45:40;9.60;;;4.80;;
5147;SDS011;2592;48.140;7.614;2023-07-09T08:48:10;6.13;;;4.50;;
5147;SDS011;2592;48.140;7.614;2023-07-09T08:50:39;10.13;;;5.20;;
5147;SDS011;2592;48.140;7.614;2023-07-09T08:53:09;10.30;;;4.50;;
5147;SDS011;2592;48.140;7.614;2023-07-09T08:55:39;9.17;;;5.50;;
5147;SDS011;2592;48.140;7.614;2023-07-09T08:58:10;8.37;;;4.93;;
5147;SDS011;2592;48.140;7.614;2023-07-09T09:00:40;9.63;;;4.40;;
5147;SDS011;2592;48.140;7.614;2023-07-09T09:03:08;13.13;;;4.40;;
5147;SDS011;2592;48.140;7.614;2023-07-09T09:05:38;12.67;;;4.97;;
5147;SDS011;2592;48.140;7.614;2023-07-09T09:08:08;6.97;;;4.00;;
5147;SDS011;2592;48.140;7.614;2023-07-09T09:10:39;8.70;;;5.47;;
5147;SDS011;2592;48.140;7.614;2023-07-09T09:13:08;9.10;;;5.30;;
5147;SDS011;2592;48.140;7.614;2023-07-09T09:15:37;12.47;;;4.73;;
5147;SDS011;2592;48.140;7.614;2023-07-09T09:20:54;8.33;;;3.80;;
5147;SDS011;2592;48.140;7.614;2023-07-09T09:23:21;9.13;;;4.80;;
5147;SDS011;2592;48.140;7.614;2023-07-09T09:25:50;5.83;;;3.60;;
5147;SDS011;2592;48.140;7.614;2023-07-09T09:28:18;6.43;;;4.40;;
5147;SDS011;2592;48.140;7.614;2023-07-09T09:30:47;19.60;;;4.80;;
5147;SDS011;2592;48.140;7.614;2023-07-09T09:33:16;10.27;;;4.60;;
5147;SDS011;2592;48.140;7.614;2023-07-09T09:35:43;10.50;;;4.33;;
5147;SDS011;2592;48.140;7.614;2023-07-09T09:38:12;5.40;;;3.90;;
5147;SDS011;2592;48.140;7.614;2023-07-09T09:40:38;5.80;;;3.90;;
5147;SDS011;2592;48.140;7.614;2023-07-09T09:43:09;8.90;;;4.47;;
5147;SDS011;2592;48.140;7.614;2023-07-09T09:45:38;7.97;;;4.30;;
5147;SDS011;2592;48.140;7.614;2023-07-09T09:48:10;10.33;;;5.23;;
5147;SDS011;2592;48.140;7.614;2023-07-09T09:50:39;7.40;;;4.17;;
5147;SDS011;2592;48.140;7.614;2023-07-09T09:53:07;7.17;;;4.37;;
5147;SDS011;2592;48.140;7.614;2023-07-09T09:55:35;6.97;;;4.20;;
5147;SDS011;2592;48.140;7.614;2023-07-09T09:58:01;8.10;;;4.00;;
5147;SDS011;2592;48.140;7.614;2023-07-09T10:00:28;7.77;;;4.13;;
5147;SDS011;2592;48.140;7.614;2023-07-09T10:02:58;5.80;;;4.40;;
5147;SDS011;2592;48.140;7.614;2023-07-09T10:05:27;6.33;;;3.93;;
5147;SDS011;2592;48.140;7.614;2023-07-09T10:07:57;13.40;;;3.70;;
5147;SDS011;2592;48.140;7.614;2023-07-09T10:10:26;6.87;;;4.20;;
5147;SDS011;2592;48.140;7.614;2023-07-09T10:12:57;9.23;;;4.27;;
5147;SDS011;2592;48.140;7.614;2023-07-09T10:15:30;6.10;;;3.90;;
5147;SDS011;2592;48.140;7.614;2023-07-09T10:18:01;8.07;;;4.60;;
5147;SDS011;2592;48.140;7.614;2023-07-09T10:20:32;7.13;;;4.30;;
5147;SDS011;2592;48.140;7.614;2023-07-09T10:23:02;8.30;;;3.70;;
5147;SDS011;2592;48.140;7.614;2023-07-09T10:25:30;11.53;;;4.13;;
5147;SDS011;2592;48.140;7.614;2023-07-09T10:28:16;16.37;;;4.80;;
5147;SDS011;2592;48.140;7.614;2023-07-09T10:30:46;6.03;;;4.60;;
5147;SDS011;2592;48.140;7.614;2023-07-09T10:33:15;8.63;;;4.83;;
5147;SDS011;2592;48.140;7.614;2023-07-09T10:35:47;4.70;;;3.70;;
5147;SDS011;2592;48.140;7.614;2023-07-09T10:38:24;6.87;;;4.10;;
5147;SDS011;2592;48.140;7.614;2023-07-09T10:41:01;5.63;;;4.17;;
5147;SDS011;2592;48.140;7.614;2023-07-09T10:43:33;6.77;;;3.57;;
5147;SDS011;2592;48.140;7.614;2023-07-09T10:46:03;4.70;;;3.70;;
5147;SDS011;2592;48.140;7.614;2023-07-09T10:48:33;9.33;;;3.90;;
5147;SDS011;2592;48.140;7.614;2023-07-09T10:51:00;5.60;;;3.77;;
5147;SDS011;2592;48.140;7.614;2023-07-09T10:53:28;6.33;;;4.30;;
5147;SDS011;2592;48.140;7.614;2023-07-09T10:55:57;5.00;;;3.80;;
5147;SDS011;2592;48.140;7.614;2023-07-09T10:58:28;4.53;;;3.93;;
5147;SDS011;2592;48.140;7.614;2023-07-09T11:00:59;7.00;;;4.47;;
5147;SDS011;2592;48.140;7.614;2023-07-09T11:03:32;7.27;;;4.27;;
5147;SDS011;2592;48.140;7.614;2023-07-09T11:06:00;8.80;;;4.50;;
5147;SDS011;2592;48.140;7.614;2023-07-09T11:08:30;4.90;;;4.10;;
5147;SDS011;2592;48.140;7.614;2023-07-09T11:10:59;6.33;;;4.50;;
5147;SDS011;2592;48.140;7.614;2023-07-09T11:13:32;7.23;;;4.27;;
5147;SDS011;2592;48.140;7.614;2023-07-09T11:16:01;6.30;;;4.60;;
5147;SDS011;2592;48.140;7.614;2023-07-09T11:18:30;4.60;;;3.50;;
5147;SDS011;2592;48.140;7.614;2023-07-09T11:20:58;5.83;;;4.10;;
5147;SDS011;2592;48.140;7.614;2023-07-09T11:23:36;9.27;;;3.87;;
5147;SDS011;2592;48.140;7.614;2023-07-09T11:26:10;7.33;;;4.10;;
5147;SDS011;2592;48.140;7.614;2023-07-09T11:28:40;6.93;;;3.60;;
5147;SDS011;2592;48.140;7.614;2023-07-09T11:31:14;5.70;;;3.87;;
5147;SDS011;2592;48.140;7.614;2023-07-09T11:33:46;5.70;;;3.93;;
5147;SDS011;2592;48.140;7.614;2023-07-09T11:36:13;6.50;;;3.60;;
5147;SDS011;2592;48.140;7.614;2023-07-09T11:38:41;8.87;;;4.17;;
5147;SDS011;2592;48.140;7.614;2023-07-09T11:41:23;7.77;;;3.97;;
5147;SDS011;2592;48.140;7.614;2023-07-09T11:43:51;7.70;;;4.27;;
5147;SDS011;2592;48.140;7.614;2023-07-09T11:46:20;6.80;;;4.07;;
5147;SDS011;2592;48.140;7.614;2023-07-09T11:48:49;9.93;;;4.07;;
5147;SDS011;2592;48.140;7.614;2023-07-09T11:51:20;11.83;;;4.00;;
5147;SDS011;2592;48.140;7.614;2023-07-09T11:53:48;5.40;;;3.73;;
5147;SDS011;2592;48.140;7.614;2023-07-09T11:56:18;6.07;;;3.43;;
5147;SDS011;2592;48.140;7.614;2023-07-09T11:58:47;9.67;;;3.50;;
5147;SDS011;2592;48.140;7.614;2023-07-09T12:01:14;7.20;;;4.40;;
5147;SDS011;2592;48.140;7.614;2023-07-09T12:03:44;5.87;;;3.27;;
5147;SDS011;2592;48.140;7.614;2023-07-09T12:06:14;6.47;;;3.83;;
5147;SDS011;2592;48.140;7.614;2023-07-09T12:08:42;5.13;;;3.53;;
5147;SDS011;2592;48.140;7.614;2023-07-09T12:11:17;5.27;;;3.63;;
5147;SDS011;2592;48.140;7.614;2023-07-09T12:13:44;4.93;;;3.60;;
5147;SDS011;2592;48.140;7.614;2023-07-09T12:16:21;4.17;;;3.70;;
5147;SDS011;2592;48.140;7.614;2023-07-09T12:18:49;9.87;;;3.53;;
5147;SDS011;2592;48.140;7.614;2023-07-09T12:21:15;4.70;;;3.13;;
5147;SDS011;2592;48.140;7.614;2023-07-09T12:23:42;7.13;;;3.60;;
5147;SDS011;2592;48.140;7.614;2023-07-09T12:26:10;6.10;;;3.17;;
5147;SDS011;2592;48.140;7.614;2023-07-09T12:28:37;11.53;;;3.60;;
5147;SDS011;2592;48.140;7.614;2023-07-09T12:31:04;5.40;;;3.10;;
5147;SDS011;2592;48.140;7.614;2023-07-09T12:33:52;8.60;;;3.60;;
5147;SDS011;2592;48.140;7.614;2023-07-09T12:36:30;5.70;;;3.60;;
5147;SDS011;2592;48.140;7.614;2023-07-09T12:38:59;8.20;;;3.33;;
5147;SDS011;2592;48.140;7.614;2023-07-09T12:41:34;5.57;;;4.30;;
5147;SDS011;2592;48.140;7.614;2023-07-09T12:44:04;5.30;;;3.13;;
5147;SDS011;2592;48.140;7.614;2023-07-09T12:46:31;5.20;;;3.10;;
5147;SDS011;2592;48.140;7.614;2023-07-09T12:48:58;8.10;;;3.80;;
5147;SDS011;2592;48.140;7.614;2023-07-09T12:51:25;3.97;;;3.20;;
5147;SDS011;2592;48.140;7.614;2023-07-09T12:54:01;10.53;;;3.63;;
5147;SDS011;2592;48.140;7.614;2023-07-09T12:56:29;5.23;;;3.70;;
5147;SDS011;2592;48.140;7.614;2023-07-09T12:58:56;7.90;;;3.70;;
5147;SDS011;2592;48.140;7.614;2023-07-09T13:01:22;5.40;;;3.27;;
5147;SDS011;2592;48.140;7.614;2023-07-09T13:03:53;6.03;;;3.70;;
5147;SDS011;2592;48.140;7.614;2023-07-09T13:06:30;11.50;;;3.70;;
5147;SDS011;2592;48.140;7.614;2023-07-09T13:09:01;7.50;;;3.93;;
5147;SDS011;2592;48.140;7.614;2023-07-09T13:11:32;3.43;;;3.00;;
5147;SDS011;2592;48.140;7.614;2023-07-09T13:13:59;4.23;;;3.20;;
5147;SDS011;2592;48.140;7.614;2023-07-09T13:16:26;6.00;;;3.80;;
5147;SDS011;2592;48.140;7.614;2023-07-09T13:18:52;5.17;;;3.67;;
5147;SDS011;2592;48.140;7.614;2023-07-09T13:21:19;17.20;;;4.20;;
5147;SDS011;2592;48.140;7.614;2023-07-09T13:23:46;4.93;;;3.57;;
5147;SDS011;2592;48.140;7.614;2023-07-09T13:26:14;9.60;;;3.50;;
5147;SDS011;2592;48.140;7.614;2023-07-09T13:28:42;10.33;;;3.93;;
5147;SDS011;2592;48.140;7.614;2023-07-09T13:31:11;5.53;;;3.87;;
5147;SDS011;2592;48.140;7.614;2023-07-09T13:33:40;6.40;;;3.30;;
5147;SDS011;2592;48.140;7.614;2023-07-09T13:36:06;5.50;;;3.30;;
5147;SDS011;2592;48.140;7.614;2023-07-09T13:38:32;3.40;;;3.10;;
5147;SDS011;2592;48.140;7.614;2023-07-09T13:41:00;8.03;;;3.63;;
5147;SDS011;2592;48.140;7.614;2023-07-09T13:43:29;10.20;;;4.27;;
5147;SDS011;2592;48.140;7.614;2023-07-09T13:45:56;4.40;;;3.50;;
5147;SDS011;2592;48.140;7.614;2023-07-09T13:48:24;4.00;;;3.03;;
5147;SDS011;2592;48.140;7.614;2023-07-09T13:50:51;5.07;;;3.60;;
5147;SDS011;2592;48.140;7.614;2023-07-09T13:53:19;4.93;;;3.30;;
5147;SDS011;2592;48.140;7.614;2023-07-09T13:55:46;4.60;;;3.00;;
5147;SDS011;2592;48.140;7.614;2023-07-09T13:58:14;7.60;;;3.50;;
5147;SDS011;2592;48.140;7.614;2023-07-09T14:00:43;5.33;;;3.33;;
5147;SDS011;2592;48.140;7.614;2023-07-09T14:03:12;8.20;;;3.27;;
5147;SDS011;2592;48.140;7.614;2023-07-09T14:05:40;4.77;;;3.00;;
5147;SDS011;2592;48.140;7.614;2023-07-09T14:08:07;6.87;;;3.23;;
5147;SDS011;2592;48.140;7.614;2023-07-09T14:10:33;5.50;;;2.90;;
5147;SDS011;2592;48.140;7.614;2023-07-09T14:12:59;6.13;;;3.77;;
5147;SDS011;2592;48.140;7.614;2023-07-09T14:15:27;5.50;;;3.00;;
5147;SDS011;2592;48.140;7.614;2023-07-09T14:17:55;6.47;;;3.13;;
5147;SDS011;2592;48.140;7.614;2023-07-09T14:20:22;5.60;;;3.60;;
5147;SDS011;2592;48.140;7.614;2023-07-09T14:22:48;4.90;;;2.97;;
5147;SDS011;2592;48.140;7.614;2023-07-09T14:25:17;6.40;;;3.03;;
5147;SDS011;2592;48.140;7.614;2023-07-09T14:27:44;7.50;;;3.13;;
5147;SDS011;2592;48.140;7.614;2023-07-09T14:30:13;5.83;;;3.33;;
5147;SDS011;2592;48.140;7.614;2023-07-09T14:32:40;3.70;;;2.80;;
5147;SDS011;2592;48.140;7.614;2023-07-09T14:35:11;17.70;;;3.70;;
5147;SDS011;2592;48.140;7.614;2023-07-09T14:37:38;17.73;;;4.33;;
5147;SDS011;2592;48.140;7.614;2023-07-09T14:40:05;7.97;;;3.40;;
5147;SDS011;2592;48.140;7.614;2023-07-09T14:42:31;4.30;;;2.87;;
5147;SDS011;2592;48.140;7.614;2023-07-09T14:44:58;11.73;;;5.90;;
5147;SDS011;2592;48.140;7.614;2023-07-09T14:47:24;4.90;;;3.20;;
5147;SDS011;2592;48.140;7.614;2023-07-09T14:49:53;10.93;;;6.43;;
5147;SDS011;2592;48.140;7.614;2023-07-09T14:52:21;7.93;;;3.80;;
5147;SDS011;2592;48.140;7.614;2023-07-09T14:54:48;6.00;;;3.10;;
5147;SDS011;2592;48.140;7.614;2023-07-09T14:57:18;10.07;;;3.80;;
5147;SDS011;2592;48.140;7.614;2023-07-09T14:59:44;4.63;;;3.13;;
5147;SDS011;2592;48.140;7.614;2023-07-09T15:02:17;9.10;;;3.30;;
5147;SDS011;2592;48.140;7.614;2023-07-09T15:04:45;6.80;;;3.53;;
5147;SDS011;2592;48.140;7.614;2023-07-09T15:07:11;8.20;;;3.47;;
5147;SDS011;2592;48.140;7.614;2023-07-09T15:09:40;8.50;;;3.43;;
5147;SDS011;2592;48.140;7.614;2023-07-09T15:12:12;9.10;;;3.23;;
5147;SDS011;2592;48.140;7.614;2023-07-09T15:14:39;6.50;;;3.27;;
5147;SDS011;2592;48.140;7.614;2023-07-09T15:17:07;4.57;;;3.30;;